Latest Coastal Weather Observations for Burnie Port

IDT60701

Issued at 7:32 pm EDT Tuesday 12 December 2017 (issued every 10 minutes, with the page automatically refreshed every 10 minutes)

About coastal observations | Map of coastal stations | Coastal observations for TAS | Marine services | Other Formats
Station Details ID: 091344 Name: BURNIE NTC AWS Lat: -41.05 Lon: 145.91 Height: 0.0 m
Data from the previous 72 hours. | See also: Recent months for locations in Tasmania
Date/Time
EDT
Temp
°C
Wind Pressure Rain since
9am
mm
Weather Cloud Vis
km
Sea
Height
m
Swell
Dir  Spd
kts
Gust
kts
hPa Trend Height
m
Period
s
Dir
12/07:30pm 19.2 N 1 3 1012.4 - - - - - - - - -
12/07:00pm 18.8 NNE 2 3 1012.5 - - - - - - - - -
12/06:30pm 18.8 ENE 3 4 1012.5 - - - - - - - - -
12/06:00pm 19.0 E 4 4 1012.6 - - - - - - - - -
12/05:30pm 18.9 E 4 5 1012.8 - - - - - - - - -
12/05:00pm 18.9 E 4 5 1013.2 - - - - - - - - -
12/04:30pm 18.4 E 4 6 1013.4 - - - - - - - - -
12/04:00pm 18.1 ENE 2 3 1013.6 - - - - - - - - -
12/03:30pm 17.8 E 3 5 1014.1 - - - - - - - - -
12/03:00pm 17.7 NNW 4 5 1014.4 - - - - - - - - -
12/02:30pm 17.5 NNW 7 9 1014.5 - - - - - - - - -
12/02:00pm 17.4 NNW 5 6 1014.9 - - - - - - - - -
12/01:30pm 17.1 NNW 6 8 1015.1 - - - - - - - - -
12/01:00pm 16.6 NNW 7 9 1015.4 - - - - - - - - -
12/12:30pm 16.4 NNW 8 9 1015.7 - - - - - - - - -
12/12:00pm 16.6 NNW 5 6 1015.8 - - - - - - - - -
12/11:30am 16.5 NNW 6 7 1016.1 - - - - - - - - -
12/11:00am 16.4 N 5 6 1016.1 - - - - - - - - -
12/10:30am 16.2 NNE 6 7 1016.1 - - - - - - - - -
12/10:00am 16.0 NE 4 5 1016.5 - - - - - - - - -
12/09:30am 15.9 NE 5 7 1016.4 - - - - - - - - -
12/09:00am 15.7 NE 5 7 1016.3 - - - - - - - - -
12/08:30am 16.0 NE 2 5 1016.5 - - - - - - - - -
12/08:00am 16.3 SSE 4 5 1016.1 - - - - - - - - -
12/07:30am 15.8 SSW 6 7 1016.1 - - - - - - - - -
12/07:00am 14.7 SSW 8 9 1015.9 - - - - - - - - -
12/06:30am 14.2 SSW 7 10 1015.6 - - - - - - - - -
12/06:00am 14.1 SSW 4 8 1015.7 - - - - - - - - -
12/05:30am 14.2 SSW 5 8 1015.5 - - - - - - - - -
12/05:00am 14.4 SSW 6 9 1015.1 - - - - - - - - -
12/04:30am 14.1 SSW 11 14 1015.0 - - - - - - - - -
12/04:00am 14.2 SSW 12 15 1015.3 - - - - - - - - -
12/03:30am 14.5 SSW 12 18 1015.3 - - - - - - - - -
12/03:00am 14.6 S 4 9 1015.6 - - - - - - - - -
12/02:30am 15.1 SSW 7 12 1015.7 - - - - - - - - -
12/02:00am 15.1 WSW 3 7 1015.7 - - - - - - - - -
12/01:30am 15.0 SSW 9 13 1015.7 - - - - - - - - -
12/01:00am 15.0 SSW 4 10 1015.9 - - - - - - - - -
12/12:30am 15.2 SSW 6 12 1016.1 - - - - - - - - -
12/12:00am 15.3 S 11 15 1015.8 - - - - - - - - -
 
Date/Time
EDT
Temp
°C
Wind Pressure Rain since
9am
mm
Weather Cloud Vis
km
Sea
Height
m
Swell
Dir  Spd
kts
Gust
kts
hPa Trend Height
m
Period
s
Dir
11/11:30pm 15.4 SSW 3 8 1016.0 - - - - - - - - -
11/11:00pm 15.4 SSW 5 11 1016.1 - - - - - - - - -
11/10:30pm 15.7 S 6 13 1016.2 - - - - - - - - -
11/10:00pm 15.8 NE 6 14 1016.1 - - - - - - - - -
11/09:30pm 15.9 WSW 8 15 1016.2 - - - - - - - - -
11/09:00pm 16.2 WSW 8 16 1016.4 - - - - - - - - -
11/08:30pm 16.9 WSW 9 23 1016.4 - - - - - - - - -
11/08:00pm 18.0 SW 11 21 1016.6 - - - - - - - - -
11/07:30pm 19.1 WSW 12 19 1016.2 - - - - - - - - -
11/07:00pm 19.9 WSW 11 19 1016.1 - - - - - - - - -
11/06:30pm 21.0 WSW 9 17 1015.8 - - - - - - - - -
11/06:00pm 21.7 WSW 9 15 1015.7 - - - - - - - - -
11/05:30pm 21.6 WSW 10 17 1015.6 - - - - - - - - -
11/05:00pm 22.9 WSW 10 17 1015.6 - - - - - - - - -
11/04:30pm 23.0 WSW 10 18 1015.5 - - - - - - - - -
11/04:00pm 23.3 W 9 14 1015.6 - - - - - - - - -
11/03:30pm 22.2 W 10 17 1015.8 - - - - - - - - -
11/03:00pm 22.1 WNW 10 17 1016.1 - - - - - - - - -
11/02:30pm 22.4 W 9 15 1016.2 - - - - - - - - -
11/02:00pm 21.6 W 10 17 1016.5 - - - - - - - - -
11/01:30pm 20.2 WNW 10 16 1016.8 - - - - - - - - -
11/01:00pm 20.7 W 12 19 1017.2 - - - - - - - - -
11/12:30pm 20.2 W 10 16 1017.4 - - - - - - - - -
11/12:00pm 19.6 W 7 15 1017.6 - - - - - - - - -
11/11:30am 20.0 W 3 10 1017.7 - - - - - - - - -
11/11:00am 18.9 SW 9 17 1018.0 - - - - - - - - -
11/10:30am 18.9 WSW 7 13 1018.2 - - - - - - - - -
11/10:00am 18.3 WSW 8 14 1018.3 - - - - - - - - -
11/09:30am 17.2 WSW 6 11 1018.4 - - - - - - - - -
11/09:00am 16.9 WSW 6 13 1018.6 - - - - - - - - -
11/08:30am 16.2 WSW 6 15 1018.5 - - - - - - - - -
11/08:00am 15.3 WSW 6 13 1018.5 - - - - - - - - -
11/07:30am 15.1 W 6 9 1018.4 - - - - - - - - -
11/07:00am 13.9 NW 7 8 1018.3 - - - - - - - - -
11/06:30am 13.2 NW 6 8 1018.2 - - - - - - - - -
11/06:00am 13.2 NW 6 7 1018.1 - - - - - - - - -
11/05:30am 13.3 NW 7 10 1018.1 - - - - - - - - -
11/05:00am 13.4 WNW 6 9 1017.9 - - - - - - - - -
11/04:30am 13.5 WNW 6 9 1017.6 - - - - - - - - -
11/04:00am 13.4 NW 6 8 1017.6 - - - - - - - - -
11/03:30am 13.4 NW 6 8 1017.8 - - - - - - - - -
11/03:00am 13.5 WNW 6 9 1018.1 - - - - - - - - -
11/02:30am 13.7 WNW 6 7 1018.4 - - - - - - - - -
11/02:00am 14.2 WNW 5 8 1018.4 - - - - - - - - -
11/01:30am 14.4 W 5 11 1018.6 - - - - - - - - -
11/01:00am 14.6 WNW 6 11 1018.8 - - - - - - - - -
11/12:30am 14.7 WNW 6 12 1019.2 - - - - - - - - -
11/12:00am 14.8 W 6 11 1019.4 - - - - - - - - -
 
Date/Time
EDT
Temp
°C
Wind Pressure Rain since
9am
mm
Weather Cloud Vis
km
Sea
Height
m
Swell
Dir  Spd
kts
Gust
kts
hPa Trend Height
m
Period
s
Dir
10/11:30pm 15.1 WNW 6 9 1019.4 - - - - - - - - -
10/11:00pm 15.6 WNW 5 9 1019.4 - - - - - - - - -
10/10:30pm 15.9 WNW 6 12 1019.5 - - - - - - - - -
10/10:00pm 16.2 W 7 11 1019.3 - - - - - - - - -
10/09:30pm 16.7 W 6 9 1019.2 - - - - - - - - -
10/09:00pm 17.1 WSW 9 17 1019.1 - - - - - - - - -
10/08:30pm 17.7 WSW 9 16 1018.8 - - - - - - - - -
10/08:00pm 18.1 SW 11 17 1018.5 - - - - - - - - -
10/07:30pm 19.9 WSW 8 15 1018.0 - - - - - - - - -
10/07:00pm 20.7 W 11 18 1017.6 - - - - - - - - -
10/06:30pm 20.9 W 11 16 1017.3 - - - - - - - - -
10/06:00pm 20.9 WNW 11 18 1017.2 - - - - - - - - -
10/05:30pm 21.3 W 12 19 1017.2 - - - - - - - - -
10/05:00pm 21.8 W 12 22 1017.1 - - - - - - - - -
10/04:30pm 20.9 WNW 11 17 1017.2 - - - - - - - - -
10/04:00pm 21.6 WNW 13 23 1017.2 - - - - - - - - -
10/03:30pm 21.8 WNW 12 21 1017.3 - - - - - - - - -
10/03:00pm 22.0 WNW 13 20 1017.4 - - - - - - - - -
10/02:30pm 19.7 WNW 12 19 1017.4 - - - - - - - - -
10/02:00pm 21.6 NW 13 21 1017.7 - - - - - - - - -
10/01:30pm 21.5 WNW 10 19 1017.8 - - - - - - - - -
10/01:00pm 21.1 WNW 11 19 1017.8 - - - - - - - - -
10/12:30pm 20.1 WNW 11 16 1018.0 - - - - - - - - -
10/12:00pm 20.4 NW 13 17 1018.1 - - - - - - - - -
10/11:30am 20.4 WNW 11 20 1018.2 - - - - - - - - -
10/11:00am 17.9 NW 14 18 1018.3 - - - - - - - - -
10/10:30am 18.8 WNW 12 17 1018.6 - - - - - - - - -
10/10:00am 18.6 W 9 18 1018.8 - - - - - - - - -
10/09:30am 17.5 WNW 11 17 1018.9 - - - - - - - - -
10/09:00am 17.3 W 9 14 1018.9 - - - - - - - - -
10/08:30am 17.2 W 8 14 1018.9 - - - - - - - - -
10/08:00am 16.2 W 7 12 1018.8 - - - - - - - - -
10/07:30am 15.2 NW 10 12 1018.6 - - - - - - - - -
10/07:00am 15.2 WNW 6 10 1018.5 - - - - - - - - -

Other Formats:

Comma delimited format used in spreadsheet applications
http://www.bom.gov.au/fwo/IDT60701/IDT60701.95963.axf

JavaScript Object Notation format (JSON) in row-major order
http://www.bom.gov.au/fwo/IDT60701/IDT60701.95963.json